Time;durP1;ratioP1;P1;durP2;ratioP2;P2;SDS_P1;SDS_P2;PMS_P1;PMS_P2;Temp;Humidity;BMP_temperature;BMP_pressure;BME280_temperature;BME280_humidity;BME280_pressure;Samples;Min_cycle;Max_cycle;Signal;HPM_P1;HPM_P2
2021/06/14 00:01:07;;;;;;;;;;;;;;;20.81;57.10;101476.47;3595385;40;20267;-80
2021/06/14 00:03:41;;;;;;;5.80;2.25;;;;;;;20.72;59.11;101469.84;3599562;40;19936;-80
2021/06/14 00:06:11;;;;;;;7.13;2.30;;;;;;;20.63;59.92;101465.88;3584993;40;20037;-81
2021/06/14 00:08:41;;;;;;;5.28;2.25;;;;;;;20.56;60.89;101464.47;3593118;40;20064;-80
2021/06/14 00:11:08;;;;;;;6.75;2.40;;;;;;;20.49;61.02;101462.22;3591089;40;20020;-81
2021/06/14 00:13:37;;;;;;;6.88;2.38;;;;;;;20.43;60.87;101458.94;3590261;40;20521;-80
2021/06/14 00:16:09;;;;;;;5.20;2.30;;;;;;;20.37;60.93;101464.53;3622801;39;20035;-80
2021/06/14 00:18:36;;;;;;;6.13;2.40;;;;;;;20.33;61.58;101465.66;3607745;39;20039;-80
2021/06/14 00:21:07;;;;;;;;;;;;;;;20.28;57.66;101470.34;3609057;39;20779;-80
2021/06/14 00:23:37;;;;;;;4.88;1.73;;;;;;;20.19;61.50;101470.78;3619371;39;19948;-80
2021/06/14 00:26:09;;;;;;;5.70;1.88;;;;;;;20.16;61.44;101477.09;3619778;39;20031;-81
2021/06/14 00:28:38;;;;;;;6.78;2.08;;;;;;;20.07;62.58;101474.03;3613809;39;20024;-80
2021/06/14 00:31:08;;;;;;;5.68;2.20;;;;;;;20.04;61.56;101471.56;3621179;39;20405;-80
2021/06/14 00:33:37;;;;;;;6.10;2.05;;;;;;;20.00;62.34;101470.00;3619992;39;20020;-80
2021/06/14 00:36:05;;;;;;;5.85;2.05;;;;;;;19.90;62.97;101462.50;3602479;39;20124;-80
2021/06/14 00:39:01;;;;;;;;;;;;;;;19.92;58.81;101467.72;3610964;39;21032;-80
2021/06/14 00:41:30;;;;;;;4.50;2.03;;;;;;;19.83;62.32;101458.44;3610789;39;19957;-80
2021/06/14 00:43:59;;;;;;;5.80;1.60;;;;;;;19.76;62.54;101451.69;3618537;39;20036;-80
2021/06/14 00:46:51;;;;;;;5.22;1.90;;;;;;;19.75;60.63;101460.59;3610890;39;20048;-80
2021/06/14 00:49:20;;;;;;;6.88;2.45;;;;;;;19.66;63.15;101455.75;3614719;39;20031;-81
2021/06/14 00:51:50;;;;;;;3.88;1.85;;;;;;;19.62;63.39;101467.44;3611729;39;20039;-80
2021/06/14 00:54:19;;;;;;;5.15;2.38;;;;;;;19.57;63.73;101456.19;3613283;39;20035;-80
2021/06/14 00:56:46;;;;;;;4.60;1.90;;;;;;;19.51;63.60;101456.44;3617903;39;20118;-80
2021/06/14 00:59:14;;;;;;;5.00;2.20;;;;;;;19.48;64.58;101444.22;3609590;39;20100;-80
2021/06/14 01:01:42;;;;;;;6.65;1.88;;;;;;;19.45;64.21;101447.84;3608397;39;20667;-80
2021/06/14 01:04:10;;;;;;;5.78;2.30;;;;;;;19.45;64.61;101455.81;3604948;39;20049;-80
2021/06/14 01:06:41;;;;;;;5.57;2.60;;;;;;;19.44;64.01;101453.25;3601945;40;20382;-79
2021/06/14 01:09:08;;;;;;;5.22;2.35;;;;;;;19.38;64.81;101446.44;3612497;39;20121;-80
2021/06/14 01:11:48;;;;;;;5.20;2.20;;;;;;;19.38;63.61;101457.03;3617280;39;20055;-80
2021/06/14 01:14:40;;;;;;;6.55;2.17;;;;;;;19.37;62.42;101457.97;3615653;39;20076;-80
2021/06/14 01:17:17;;;;;;;6.40;2.30;;;;;;;19.36;64.15;101458.91;3613160;39;20027;-81
2021/06/14 01:20:07;;;;;;;5.13;2.08;;;;;;;19.36;62.88;101461.56;3612118;39;20035;-81
2021/06/14 01:23:13;;;;;;;4.65;2.20;;;;;;;19.37;62.93;101450.03;3602126;39;20040;-80
2021/06/14 01:26:00;;;;;;;5.78;2.03;;;;;;;19.34;63.21;101450.16;3607853;39;20070;-80
2021/06/14 01:28:57;;;;;;;7.00;2.50;;;;;;;19.39;63.12;101444.66;3641197;22;20026;-80
2021/06/14 01:31:32;;;;;;;6.03;2.58;;;;;;;19.37;65.11;101452.69;3598902;40;20317;-79
2021/06/14 01:34:03;;;;;;;5.90;2.85;;;;;;;19.37;65.05;101454.47;3596472;39;20349;-80
2021/06/14 01:36:35;;;;;;;7.32;3.03;;;;;;;19.33;65.18;101448.47;3590575;40;20025;-80
2021/06/14 01:39:09;;;;;;;5.35;2.15;;;;;;;19.39;64.59;101452.59;3594055;40;20309;-82
2021/06/14 01:41:41;;;;;;;6.85;2.78;;;;;;;19.35;65.51;101457.16;3597302;39;20036;-80
2021/06/14 01:44:20;;;;;;;7.40;3.17;;;;;;;19.37;65.04;101450.03;3602457;39;20021;-80
2021/06/14 01:46:50;;;;;;;7.45;2.33;;;;;;;19.34;65.59;101450.16;3593378;40;20024;-80
2021/06/14 01:49:20;;;;;;;4.90;2.58;;;;;;;19.36;65.59;101453.63;3594429;39;20035;-80
2021/06/14 01:51:53;;;;;;;7.60;3.20;;;;;;;19.40;65.52;101463.09;3593460;40;20397;-81
2021/06/14 01:54:25;;;;;;;5.43;2.25;;;;;;;19.36;65.57;101453.63;3597875;40;20606;-80
2021/06/14 02:03:24;;;;;;;5.63;2.50;;;;;;;19.35;65.41;101459.81;3622230;39;20061;-79
2021/06/14 02:06:00;;;;;;;8.23;2.75;;;;;;;19.38;66.93;101478.22;3619007;39;20056;-80
2021/06/14 02:08:32;;;;;;;6.88;2.97;;;;;;;19.35;66.67;101473.06;3612280;39;20900;-80
2021/06/14 02:11:04;;;;;;;8.82;2.60;;;;;;;19.31;65.50;101484.75;3617952;39;20031;-80
2021/06/14 02:13:36;;;;;;;6.53;2.30;;;;;;;19.25;64.92;101477.06;3613811;39;20044;-80
2021/06/14 02:16:09;;;;;;;3.92;1.67;;;;;;;19.14;65.35;101480.22;3613875;39;20084;-80
2021/06/14 02:18:37;;;;;;;4.90;1.65;;;;;;;19.11;66.91;101498.03;3605999;39;20064;-80
2021/06/14 02:24:03;;;;;;;4.20;1.70;;;;;;;18.93;65.51;101497.94;3615137;39;20038;-80
2021/06/14 02:26:31;;;;;;;4.10;1.67;;;;;;;18.88;68.43;101504.38;3613424;39;20019;-80
2021/06/14 02:29:01;;;;;;;3.63;1.40;;;;;;;18.80;67.05;101504.69;3581564;39;20039;-80
2021/06/14 02:31:32;;;;;;;3.55;1.40;;;;;;;18.75;66.37;101509.34;3613324;39;20537;-80
2021/06/14 02:34:03;;;;;;;2.45;0.90;;;;;;;18.67;66.56;101507.00;3604416;39;20750;-81
2021/06/14 02:36:31;;;;;;;2.92;0.90;;;;;;;18.57;66.94;101488.97;3604678;39;20076;-80
2021/06/14 02:39:03;;;;;;;2.40;0.95;;;;;;;18.56;66.74;101503.13;3615503;39;20028;-80
2021/06/14 02:41:32;;;;;;;2.03;0.80;;;;;;;18.48;66.49;101499.94;3613616;39;20024;-80
2021/06/14 02:44:06;;;;;;;1.75;0.75;;;;;;;18.47;65.20;101504.34;3604908;39;20433;-81
2021/06/14 02:46:45;;;;;;;1.40;0.60;;;;;;;18.42;65.87;101504.56;3608508;39;20035;-81
2021/06/14 02:49:20;;;;;;;2.38;0.70;;;;;;;18.38;65.45;101505.59;3620413;39;20499;-80
2021/06/14 02:51:50;;;;;;;2.30;0.70;;;;;;;18.32;66.71;101499.72;3570321;39;20083;-80
2021/06/14 02:54:46;;;;;;;2.45;0.52;;;;;;;18.34;64.87;101519.00;3595146;39;20014;-80
2021/06/14 02:57:14;;;;;;;1.27;0.50;;;;;;;18.29;67.37;101521.84;3572882;40;20119;-80
2021/06/14 02:59:46;;;;;;;1.02;0.40;;;;;;;18.29;68.02;101524.50;3579935;40;20026;-80
2021/06/14 03:02:19;;;;;;;2.60;0.70;;;;;;;18.27;68.15;101522.84;3573316;40;20090;-81
2021/06/14 03:04:48;;;;;;;2.00;0.40;;;;;;;18.21;69.36;101521.31;3570236;40;20055;-81
2021/06/14 03:07:18;;;;;;;1.25;0.70;;;;;;;18.18;69.48;101529.38;3572672;22;20080;31
2021/06/14 03:09:48;;;;;;;1.50;0.60;;;;;;;18.09;70.12;101533.25;3611535;39;20061;-81
2021/06/14 03:12:16;;;;;;;0.35;0.20;;;;;;;18.08;69.01;101538.59;3597179;40;20029;-81
2021/06/14 03:14:49;;;;;;;0.68;0.25;;;;;;;18.05;66.90;101534.31;3599763;40;20024;-81
2021/06/14 03:17:23;;;;;;;0.17;0.15;;;;;;;18.00;66.45;101541.56;3593550;40;20433;-80
2021/06/14 03:19:56;;;;;;;0.10;0.10;;;;;;;17.89;66.07;101544.66;3607193;39;20065;-80
2021/06/14 03:22:24;;;;;;;0.17;0.17;;;;;;;17.79;66.09;101538.00;3602554;39;20024;-80
2021/06/14 03:24:53;;;;;;;0.20;0.20;;;;;;;17.70;65.43;101529.53;3608624;39;20012;-80
2021/06/14 03:27:22;;;;;;;0.15;0.10;;;;;;;17.59;65.31;101527.31;3604451;39;20025;-80
2021/06/14 03:29:50;;;;;;;0.10;0.10;;;;;;;17.50;65.75;101525.03;3604814;39;20027;-80
2021/06/14 03:32:19;;;;;;;0.28;0.10;;;;;;;17.47;65.16;101527.78;3598003;40;20438;-80
2021/06/14 03:34:53;;;;;;;0.70;0.17;;;;;;;17.45;64.80;101532.25;3599086;40;20029;-80
2021/06/14 03:37:26;;;;;;;0.10;0.10;;;;;;;17.37;64.92;101541.31;3593733;40;20043;-80
2021/06/14 03:39:58;;;;;;;0.10;0.00;;;;;;;17.29;64.79;101535.47;3584395;40;20589;-80
2021/06/14 03:42:30;;;;;;;0.47;0.10;;;;;;;17.25;64.75;101544.44;3598830;40;20025;-80
2021/06/14 03:45:01;;;;;;;0.28;0.17;;;;;;;17.20;64.65;101538.47;3592456;40;21025;-80
2021/06/14 03:47:34;;;;;;;0.15;0.10;;;;;;;17.17;64.21;101533.28;3596673;40;20471;-80
2021/06/14 03:50:09;;;;;;;0.00;0.00;;;;;;;17.12;64.68;101524.66;3577638;40;20079;-80
2021/06/14 03:52:41;;;;;;;0.30;0.10;;;;;;;17.10;64.44;101524.72;3591714;40;20036;-80
2021/06/14 03:55:11;;;;;;;0.50;0.13;;;;;;;17.10;64.79;101526.53;3592693;40;21013;-80
2021/06/14 04:00:28;;;;;;;1.00;0.15;;;;;;;17.04;64.43;101532.03;3592714;40;20104;-79
2021/06/14 04:02:56;;;;;;;0.20;0.10;;;;;;;16.99;64.17;101528.69;3586296;40;20066;-79
2021/06/14 04:05:39;;;;;;;0.05;0.05;;;;;;;17.04;63.56;101542.59;3586019;40;20035;-80
2021/06/14 04:08:56;;;;;;;0.08;0.08;;;;;;;17.04;63.08;101553.13;3594503;40;20106;-80
2021/06/14 04:14:11;;;;;;;1.98;0.30;;;;;;;16.91;63.57;101541.28;3591010;40;20865;-80
2021/06/14 04:16:38;;;;;;;0.82;0.10;;;;;;;16.93;63.61;101545.59;3591881;40;20026;-80
2021/06/14 04:19:04;;;;;;;0.10;0.10;;;;;;;16.88;63.88;101537.00;3593855;40;20044;-80
2021/06/14 04:22:03;;;;;;;0.10;0.10;;;;;;;16.94;63.61;101546.47;3613154;22;20037;-80
2021/06/14 04:24:30;;;;;;;0.20;0.20;;;;;;;16.82;63.87;101537.19;3611130;39;20026;-80
2021/06/14 04:26:57;;;;;;;0.10;0.10;;;;;;;16.85;64.03;101542.38;3616458;39;20056;-80
2021/06/14 04:29:27;;;;;;;0.10;0.10;;;;;;;16.90;63.91;101552.75;3562809;39;20084;-80
2021/06/14 04:34:54;;;;;;;1.27;0.20;;;;;;;16.86;63.68;101554.63;3595952;39;20771;-81
2021/06/14 04:37:50;;;;;;;1.55;0.20;;;;;;;16.90;63.23;101565.94;3583164;40;20336;-80
2021/06/14 04:40:22;;;;;;;0.25;0.20;;;;;;;16.84;63.70;101557.34;3606364;39;20056;-80
2021/06/14 04:42:55;;;;;;;0.65;0.30;;;;;;;16.88;63.70;101568.66;3603109;39;20024;-80
2021/06/14 04:45:25;;;;;;;1.17;0.10;;;;;;;16.82;63.94;101572.34;3606125;39;20100;-81
2021/06/14 04:47:52;;;;;;;0.22;0.17;;;;;;;16.81;64.22;101562.72;3606005;39;20055;-80
2021/06/14 04:50:23;;;;;;;0.30;0.20;;;;;;;16.87;64.15;101577.47;3604972;39;20971;-80
2021/06/14 04:52:50;;;;;;;0.25;0.20;;;;;;;16.88;64.34;101580.94;3603656;39;20020;-80
2021/06/14 04:55:23;;;;;;;;;;;;;;;16.92;62.82;101580.78;3611080;39;20024;-80
2021/06/14 04:58:07;;;;;;;0.77;0.25;;;;;;;16.94;63.79;101583.41;3650202;22;20225;-80
2021/06/14 05:01:00;;;;;;;0.63;0.38;;;;;;;16.96;63.13;101586.84;3635509;22;20437;-80
2021/06/14 05:03:29;;;;;;;0.30;0.30;;;;;;;16.93;64.39;101582.53;3581079;40;20029;-80
2021/06/14 05:05:58;;;;;;;0.35;0.35;;;;;;;16.92;64.31;101588.72;3583701;40;20485;-80
2021/06/14 05:08:25;;;;;;;0.70;0.35;;;;;;;16.94;63.84;101588.69;3574608;40;20375;-80
2021/06/14 05:10:54;;;;;;;0.30;0.30;;;;;;;16.96;63.75;101592.13;3588823;40;20041;-80
2021/06/14 05:13:23;;;;;;;0.73;0.40;;;;;;;16.96;63.70;101598.25;3593972;40;20058;-80
2021/06/14 05:18:39;;;;;;;0.50;0.30;;;;;;;16.86;63.18;101602.97;3622372;39;20024;-80
2021/06/14 05:23:57;;;;;;;0.30;0.30;;;;;;;16.84;62.99;101615.38;3613663;39;20499;-80
2021/06/14 05:26:30;;;;;;;1.80;0.50;;;;;;;16.89;62.69;101635.47;3612494;39;20591;-81
2021/06/14 05:32:17;;;;;;;1.05;0.38;;;;;;;16.89;62.64;101632.81;3653487;22;21034;-80
2021/06/14 05:37:39;;;;;;;1.10;0.38;;;;;;;16.86;63.04;101639.91;3618340;39;20048;-80
2021/06/14 05:40:08;;;;;;;6.05;0.50;;;;;;;16.89;63.16;101638.09;3639747;22;20021;-80
2021/06/14 05:45:34;;;;;;;0.28;0.20;;;;;;;16.86;62.70;101631.13;3580443;39;20041;-81
2021/06/14 05:48:03;;;;;;;2.25;0.50;;;;;;;16.93;62.50;101644.97;3572514;39;20017;-80
2021/06/14 05:50:31;;;;;;;0.98;0.40;;;;;;;16.90;62.06;101655.66;3567289;40;20025;-80
2021/06/14 05:52:58;;;;;;;0.85;0.40;;;;;;;16.89;62.00;101648.66;3584463;39;20023;-80
2021/06/14 05:55:30;;;;;;;2.40;0.57;;;;;;;16.94;61.58;101667.84;3572465;40;20036;-80
2021/06/14 05:57:58;;;;;;;3.70;0.60;;;;;;;16.86;61.20;101661.03;3577474;40;20021;-80
2021/06/14 06:00:25;;;;;;;1.60;0.45;;;;;;;16.86;60.86;101676.84;3567428;40;20029;-80
2021/06/14 06:02:52;;;;;;;2.88;0.70;;;;;;;16.85;61.07;101685.69;3574424;40;20037;-80
2021/06/14 06:05:20;;;;;;;5.47;0.73;;;;;;;16.80;60.72;101665.66;3566318;40;20034;-80
2021/06/14 06:07:53;;;;;;;3.33;0.60;;;;;;;16.81;60.30;101673.50;3571197;40;20426;-81
2021/06/14 06:10:28;;;;;;;1.58;0.50;;;;;;;16.74;60.26;101666.72;3566904;40;20030;-80
2021/06/14 06:13:03;;;;;;;3.90;0.80;;;;;;;16.72;60.19;101663.25;3591457;39;20037;-81
2021/06/14 06:15:36;;;;;;;3.63;0.80;;;;;;;16.69;60.41;101676.53;3571721;39;20354;-80
2021/06/14 06:18:04;;;;;;;5.75;1.13;;;;;;;16.64;60.80;101664.41;3570054;39;20041;-80
2021/06/14 06:20:34;;;;;;;3.60;0.80;;;;;;;16.63;60.48;101676.72;3670841;23;20046;-80
2021/06/14 06:23:31;;;;;;;5.90;0.90;;;;;;;16.65;60.58;101676.66;3558458;40;20021;-81
2021/06/14 06:26:03;;;;;;;4.20;0.80;;;;;;;16.59;60.36;101667.19;3580602;40;20041;-81
2021/06/14 06:28:30;;;;;;;7.38;1.63;;;;;;;16.59;60.72;101683.88;3554208;39;20280;-81
2021/06/14 06:31:04;;;;;;;;;;;;;;;16.64;60.57;101675.81;3562925;40;20038;-79
2021/06/14 06:36:30;;;;;;;2.28;0.70;;;;;;;16.60;60.80;101674.19;1531381;22;20223;-79
2021/06/14 06:38:59;;;;;;;4.70;0.70;;;;;;;16.64;60.14;101674.94;3689223;22;20062;-80
2021/06/14 06:41:53;;;;;;;3.05;0.77;;;;;;;16.61;59.96;101670.63;3637890;39;20447;-80
2021/06/14 06:47:16;;;;;;;4.38;0.77;;;;;;;16.65;60.15;101688.06;888705;22;21396;31
2021/06/14 06:49:44;;;;;;;6.63;1.13;;;;;;;16.60;59.86;101684.72;3599639;39;20061;-78
2021/06/14 06:52:11;;;;;;;1.70;0.95;;;;;;;16.60;60.08;101690.00;3559139;40;20033;-80
2021/06/14 06:54:44;;;;;;;3.42;0.90;;;;;;;16.63;60.12;101697.81;3568094;39;20033;-80
2021/06/14 06:57:13;;;;;;;5.28;1.35;;;;;;;16.57;59.83;101684.81;3595903;39;20028;-80
2021/06/14 06:59:41;;;;;;;4.53;1.08;;;;;;;16.42;60.54;101669.47;3598142;22;20020;31
2021/06/14 07:02:10;;;;;;;3.90;0.77;;;;;;;16.59;60.80;101693.56;3584586;39;20026;-80
2021/06/14 07:04:39;;;;;;;6.35;1.35;;;;;;;16.58;60.68;101686.56;3603043;40;20030;-80
2021/06/14 07:07:07;;;;;;;9.20;1.25;;;;;;;16.59;61.04;101691.78;3599014;39;20038;-80
2021/06/14 07:12:40;;;;;;;7.80;1.27;;;;;;;16.70;60.60;101695.84;3631750;39;20125;-80
2021/06/14 07:15:12;;;;;;;3.40;1.38;;;;;;;16.70;60.68;101696.69;3630876;39;20031;-80
2021/06/14 07:17:42;;;;;;;9.45;1.42;;;;;;;16.74;60.15;101698.38;3631410;39;20011;-80
2021/06/14 07:20:14;;;;;;;2.20;0.65;;;;;;;16.81;60.41;101699.88;3615225;39;20028;-81
2021/06/14 07:22:48;;;;;;;3.38;0.90;;;;;;;16.91;59.42;101699.59;3615082;39;20603;-80
2021/06/14 07:25:16;;;;;;;0.93;0.63;;;;;;;16.91;59.51;101700.44;3612180;39;20048;-80
2021/06/14 07:27:45;;;;;;;7.10;1.00;;;;;;;16.96;59.38;101692.38;3624486;39;20498;-80
2021/06/14 07:30:32;;;;;;;3.85;1.00;;;;;;;17.06;59.21;101696.44;3624183;39;20043;-81
2021/06/14 07:33:04;;;;;;;5.95;1.15;;;;;;;17.10;58.93;101688.38;3613380;39;20106;-80
2021/06/14 07:35:36;;;;;;;4.00;0.93;;;;;;;17.14;57.96;101691.78;3591978;39;20770;-81
2021/06/14 07:38:06;;;;;;;4.45;1.23;;;;;;;17.20;57.73;101694.19;3624161;39;20051;-80
2021/06/14 07:40:33;;;;;;;4.68;0.90;;;;;;;17.21;56.59;101695.91;3623535;39;20034;-81
2021/06/14 07:43:02;;;;;;;7.82;1.15;;;;;;;17.27;56.06;101693.06;3613864;39;20047;-80
2021/06/14 07:45:33;;;;;;;5.97;1.00;;;;;;;17.34;57.22;101693.72;3631379;39;20790;-81
2021/06/14 07:48:00;;;;;;;6.30;1.13;;;;;;;17.36;56.64;101703.31;3600833;39;20024;-80
2021/06/14 07:50:33;;;;;;;4.10;1.00;;;;;;;17.45;56.29;101701.25;3631431;39;20414;-80
2021/06/14 07:53:01;;;;;;;3.88;0.90;;;;;;;17.49;55.85;101697.59;3630760;39;20612;-81
2021/06/14 07:55:35;;;;;;;4.13;1.20;;;;;;;17.52;56.23;101703.63;3637513;39;20034;-80
2021/06/14 07:58:05;;;;;;;5.68;0.80;;;;;;;17.54;55.94;101695.66;3621668;39;20027;-81
2021/06/14 08:00:34;;;;;;;3.83;0.95;;;;;;;17.59;55.38;101701.63;3623527;39;20023;-81
2021/06/14 08:03:08;;;;;;;6.32;0.70;;;;;;;17.62;54.93;101694.44;3625088;39;20744;-80
2021/06/14 08:05:35;;;;;;;6.38;1.00;;;;;;;17.61;54.55;101683.94;3632956;39;20027;-80
2021/06/14 08:08:19;;;;;;;9.55;1.17;;;;;;;17.70;55.69;101682.75;3632197;39;20032;-80
2021/06/14 08:10:47;;;;;;;3.15;0.77;;;;;;;17.74;55.13;101695.84;3617575;39;20404;-80
2021/06/14 08:13:15;;;;;;;4.90;1.05;;;;;;;17.79;54.00;101696.53;3611073;39;20038;-80
2021/06/14 08:15:44;;;;;;;2.90;1.20;;;;;;;17.84;54.30;101694.56;3609226;39;20089;-80
2021/06/14 08:26:29;;;;;;;3.75;0.80;;;;;;;18.07;53.72;101684.91;3609238;39;21361;-80
2021/06/14 08:29:00;;;;;;;4.95;0.90;;;;;;;18.10;53.78;101705.94;3619229;39;20508;-80
2021/06/14 08:31:30;;;;;;;3.97;0.77;;;;;;;18.12;54.12;101690.88;3606237;39;20077;-80
2021/06/14 08:33:59;;;;;;;6.35;1.27;;;;;;;18.18;53.68;101692.41;3613110;39;20028;-80
2021/06/14 08:36:27;;;;;;;4.95;1.10;;;;;;;18.22;52.74;101705.47;3605799;39;20414;-81
2021/06/14 08:38:58;;;;;;;7.80;1.23;;;;;;;18.29;52.52;101696.34;3611568;39;20693;-80
2021/06/14 08:41:28;;;;;;;6.50;1.40;;;;;;;18.34;51.43;101704.97;3615125;39;20039;-80
2021/06/14 08:43:59;;;;;;;4.72;0.93;;;;;;;18.34;52.71;101704.13;3618628;39;20084;-81
2021/06/14 08:46:27;;;;;;;4.22;0.85;;;;;;;18.35;52.73;101690.84;3610343;39;20013;-80
2021/06/14 08:49:00;;;;;;;4.82;1.17;;;;;;;18.46;53.21;101700.16;3616275;39;20776;-80
2021/06/14 08:51:27;;;;;;;4.72;1.35;;;;;;;18.49;51.45;101702.66;3620074;39;20044;-80
2021/06/14 08:53:56;;;;;;;4.18;1.00;;;;;;;18.56;51.46;101693.56;3622250;39;20028;-80
2021/06/14 08:56:27;;;;;;;5.28;1.15;;;;;;;18.62;51.81;101693.31;3614026;39;20080;-81
2021/06/14 08:58:59;;;;;;;9.30;1.10;;;;;;;18.70;51.75;101691.25;3614106;39;20108;-81
2021/06/14 09:01:29;;;;;;;3.90;1.10;;;;;;;18.75;50.95;101683.97;3620522;39;20027;-80
2021/06/14 09:03:58;;;;;;;2.28;0.80;;;;;;;18.83;52.33;101686.31;3613165;39;20056;-80
2021/06/14 09:06:25;;;;;;;3.38;0.80;;;;;;;18.87;51.45;101675.53;3610714;40;20032;-80
2021/06/14 09:08:58;;;;;;;4.68;0.98;;;;;;;19.05;52.68;101680.97;3619337;39;20392;-81
2021/06/14 09:11:26;;;;;;;4.93;0.90;;;;;;;19.03;50.67;101672.25;3614981;39;20031;-81
2021/06/14 09:13:55;;;;;;;5.70;1.27;;;;;;;19.18;50.88;101682.19;3620054;39;20042;-81
2021/06/14 09:16:22;;;;;;;4.15;0.80;;;;;;;19.27;48.88;101681.78;3623795;39;20601;-80
2021/06/14 09:18:55;;;;;;;3.85;1.23;;;;;;;19.38;49.04;101690.13;3633763;39;20546;-80
2021/06/14 09:21:29;;;;;;;4.43;0.90;;;;;;;19.44;48.35;101695.16;3621426;39;20035;-80
2021/06/14 09:24:02;;;;;;;4.30;1.00;;;;;;;19.51;48.83;101700.16;3626442;39;20107;-80
2021/06/14 09:26:42;;;;;;;7.53;1.25;;;;;;;19.55;48.82;101696.47;3569289;40;20022;-80
2021/06/14 09:29:11;;;;;;;7.50;1.00;;;;;;;19.66;48.08;101699.53;3624870;39;20042;-81
2021/06/14 09:32:15;;;;;;;8.05;1.17;;;;;;;19.85;50.64;101708.38;3627531;39;20039;-80
2021/06/14 09:34:46;;;;;;;6.53;0.95;;;;;;;19.98;49.63;101705.19;3586890;40;20357;-81
2021/06/14 09:37:16;;;;;;;4.72;1.00;;;;;;;20.20;47.33;101701.44;3611205;39;20075;-80
2021/06/14 09:39:47;;;;;;;7.30;1.33;;;;;;;20.42;47.58;101701.28;3622284;39;20031;-80
2021/06/14 09:42:21;;;;;;;7.05;1.10;;;;;;;20.69;47.55;101704.44;3571225;40;20387;-80
2021/06/14 09:45:01;;;;;;;5.13;0.90;;;;;;;20.96;47.53;101707.50;3612227;39;20032;-80
2021/06/14 09:47:33;;;;;;;2.33;0.90;;;;;;;21.14;45.62;101710.19;3616928;39;20042;-81
2021/06/14 09:50:09;;;;;;;4.40;0.80;;;;;;;21.29;45.15;101708.53;3614169;39;20065;-81
2021/06/14 09:52:38;;;;;;;5.03;1.67;;;;;;;21.37;44.85;101703.72;3619468;39;20377;-81
2021/06/14 09:55:08;;;;;;;3.88;1.02;;;;;;;21.48;45.19;101715.50;3619396;39;20400;-81
2021/06/14 09:57:37;;;;;;;5.82;1.52;;;;;;;21.63;45.51;101705.84;3627508;39;20076;-81
2021/06/14 10:00:11;;;;;;;3.92;0.82;;;;;;;21.94;46.04;101710.38;3620389;39;20050;-81
2021/06/14 10:02:45;;;;;;;7.65;1.33;;;;;;;22.19;43.17;101707.28;3612066;39;20482;-81
2021/06/14 10:05:21;;;;;;;5.45;1.08;;;;;;;22.51;44.56;101701.97;3621119;39;20051;-81
2021/06/14 10:07:51;;;;;;;4.75;0.95;;;;;;;22.68;42.48;101703.66;3620382;39;20016;-81
2021/06/14 10:10:28;;;;;;;4.82;0.80;;;;;;;22.93;44.48;101709.31;3621059;39;20043;-81
2021/06/14 10:12:57;;;;;;;5.18;1.30;;;;;;;23.05;41.33;101705.91;3599290;39;20043;-81
2021/06/14 10:15:35;;;;;;;6.68;1.10;;;;;;;23.36;42.73;101706.75;3610804;39;20368;-81
2021/06/14 10:18:08;;;;;;;7.63;1.13;;;;;;;23.46;39.81;101702.56;3621782;39;20043;-81
2021/06/14 10:20:43;;;;;;;4.22;0.88;;;;;;;23.56;42.61;101709.06;3622149;39;20035;-81
2021/06/14 10:23:12;;;;;;;6.20;1.25;;;;;;;23.62;39.70;101720.28;3620872;39;20116;-82
2021/06/14 10:25:39;;;;;;;6.97;1.05;;;;;;;23.60;39.95;101708.88;3628798;39;20039;-81
2021/06/14 10:28:08;;;;;;;9.13;1.70;;;;;;;23.68;39.56;101703.97;3612471;39;20031;-81
2021/06/14 10:30:38;;;;;;;6.07;1.33;;;;;;;23.74;39.47;101706.25;3622059;39;20036;-81
2021/06/14 10:33:14;;;;;;;3.17;0.93;;;;;;;23.77;39.72;101708.72;3629912;39;20042;-81
2021/06/14 10:35:50;;;;;;;7.18;1.25;;;;;;;23.79;40.13;101710.34;3630473;39;20323;-81
2021/06/14 10:38:23;;;;;;;5.57;1.60;;;;;;;23.73;39.30;101709.88;3621257;39;20543;-81
2021/06/14 10:40:53;;;;;;;6.68;1.25;;;;;;;23.62;38.79;101712.28;3618535;39;20039;-81
2021/06/14 10:43:26;;;;;;;5.95;1.55;;;;;;;23.51;39.50;101715.63;3612369;39;20320;-81
2021/06/14 10:45:56;;;;;;;6.22;1.40;;;;;;;23.43;38.92;101729.44;3627460;39;20043;-81
2021/06/14 10:48:32;;;;;;;6.65;1.52;;;;;;;23.35;39.87;101734.34;3618927;39;20028;-81
2021/06/14 10:51:26;;;;;;;5.20;1.10;;;;;;;23.27;41.28;101725.97;3626452;39;20051;-81
2021/06/14 10:54:08;;;;;;;6.72;1.40;;;;;;;23.17;41.04;101732.81;3623235;39;20035;-80
2021/06/14 10:56:41;;;;;;;6.65;1.20;;;;;;;23.05;40.75;101735.22;3622644;39;20023;-81
2021/06/14 10:59:14;;;;;;;5.80;1.10;;;;;;;22.98;40.38;101733.88;3621512;39;20015;-80
2021/06/14 11:01:46;;;;;;;7.07;1.10;;;;;;;22.93;41.01;101729.75;3633926;39;20039;-81
2021/06/14 11:05:08;;;;;;;6.32;1.38;;;;;;;22.91;42.36;101731.63;3621061;39;20828;-81
2021/06/14 11:07:39;;;;;;;6.35;0.95;;;;;;;22.79;40.64;101718.06;3625986;39;20031;-81
2021/06/14 11:10:13;;;;;;;3.53;1.00;;;;;;;22.78;41.85;101727.00;3623900;39;20055;-81
2021/06/14 11:12:40;;;;;;;4.25;1.20;;;;;;;22.65;41.08;101725.13;3623884;39;20039;-81
2021/06/14 11:15:08;;;;;;;4.18;1.30;;;;;;;22.63;40.30;101737.69;3617892;39;20033;-81
2021/06/14 11:17:40;;;;;;;4.85;0.75;;;;;;;22.63;41.81;101743.00;3606790;39;20031;-81
2021/06/14 11:20:11;;;;;;;7.35;1.48;;;;;;;22.60;41.79;101753.81;3621512;39;20020;-81
2021/06/14 11:22:46;;;;;;;5.10;1.15;;;;;;;22.52;42.26;101746.28;3619623;39;20023;-81
2021/06/14 11:25:21;;;;;;;4.47;1.23;;;;;;;22.50;40.96;101743.69;3614011;39;20273;-81
2021/06/14 11:27:49;;;;;;;7.25;1.30;;;;;;;22.42;38.98;101742.41;3611997;39;20052;-81
2021/06/14 11:30:24;;;;;;;4.90;1.23;;;;;;;22.39;40.74;101735.44;3620243;39;20096;-81
2021/06/14 11:32:54;;;;;;;6.57;1.67;;;;;;;22.30;39.39;101735.94;3629411;39;20064;-81
2021/06/14 11:35:23;;;;;;;3.83;0.80;;;;;;;22.21;40.38;101737.34;3621652;39;20477;-81
2021/06/14 11:38:00;;;;;;;9.57;1.60;;;;;;;22.18;42.13;101731.31;3630501;39;20092;-81
2021/06/14 11:40:31;;;;;;;8.13;1.55;;;;;;;22.10;40.75;101733.50;3616984;39;20043;-81
2021/06/14 11:43:08;;;;;;;4.22;1.00;;;;;;;22.06;41.74;101731.97;3620281;39;20031;-81
2021/06/14 11:46:01;;;;;;;3.05;0.98;;;;;;;22.17;42.49;101740.25;3622091;39;20092;-81
2021/06/14 11:48:44;;;;;;;5.35;1.30;;;;;;;22.17;41.19;101734.91;3620527;39;20027;-80
2021/06/14 11:51:18;;;;;;;4.97;1.20;;;;;;;22.17;41.05;101734.91;3621265;39;20594;-81
2021/06/14 11:53:53;;;;;;;5.80;1.50;;;;;;;22.17;40.93;101730.47;3630581;39;20392;-81
2021/06/14 11:57:15;;;;;;;4.88;1.13;;;;;;;22.26;42.21;101735.28;3626920;39;20037;-81
2021/06/14 11:59:44;;;;;;;7.75;1.15;;;;;;;22.25;40.65;101738.88;3621881;39;21101;-81
2021/06/14 12:02:23;;;;;;;5.60;1.00;;;;;;;22.31;41.04;101736.84;3621523;39;20035;-81
2021/06/14 12:04:57;;;;;;;7.40;1.50;;;;;;;22.34;40.74;101739.31;3620104;39;20791;-80
2021/06/14 12:07:35;;;;;;;6.80;0.95;;;;;;;22.38;41.09;101749.69;3622022;39;20077;-81
2021/06/14 12:10:13;;;;;;;6.00;1.25;;;;;;;22.42;40.73;101735.28;3630878;39;20039;-81
2021/06/14 12:12:41;;;;;;;5.55;1.13;;;;;;;22.38;39.09;101732.88;3612467;39;20045;-81
2021/06/14 12:15:36;;;;;;;4.40;1.33;;;;;;;22.49;41.74;101741.97;3609209;39;20087;-81
2021/06/14 12:18:03;;;;;;;6.68;0.98;;;;;;;22.40;40.28;101729.16;3625379;39;20222;-81
2021/06/14 12:20:34;;;;;;;4.50;1.23;;;;;;;22.48;40.37;101742.91;3614500;39;20023;-81
2021/06/14 12:23:09;;;;;;;4.93;1.00;;;;;;;22.54;41.40;101739.03;3617720;39;20067;-81
2021/06/14 12:25:44;;;;;;;3.78;0.98;;;;;;;22.60;40.51;101740.50;3594757;39;20033;-81
2021/06/14 12:28:17;;;;;;;5.70;1.85;;;;;;;22.62;39.86;101747.47;3608758;39;20042;-81
2021/06/14 12:30:49;;;;;;;6.80;1.30;;;;;;;22.66;40.25;101737.50;3620841;39;20376;-81
2021/06/14 12:33:37;;;;;;;4.35;1.20;;;;;;;22.76;41.45;101738.72;3611233;39;20084;-81
2021/06/14 12:36:06;;;;;;;7.47;1.23;;;;;;;22.75;39.40;101731.63;3621001;39;20081;-81
2021/06/14 12:38:35;;;;;;;6.95;1.65;;;;;;;22.74;40.18;101735.25;3620627;39;20522;-81
2021/06/14 12:41:09;;;;;;;7.05;1.58;;;;;;;22.79;41.19;101730.53;3578566;39;20061;-81
2021/06/14 12:43:39;;;;;;;4.15;1.33;;;;;;;22.83;39.51;101740.06;3622440;39;20084;-81